METAR Data
IDs: Format: Raw Decoded Include TAF

Data at: 0946 UTC 18 Jan 2022

KLAA 180853Z AUTO 28004KT 10SM CLR M05/M09 A2983 RMK AO2 SLP100 T10501094 55008
KLAA 180753Z AUTO 21005KT 10SM CLR M06/M09 A2982 RMK AO2 SLP104 T10611094
KLAA 180653Z AUTO 23003KT 10SM CLR M03/M09 A2984 RMK AO2 SLP111 T10331089 401441117
KLAA 180553Z AUTO 21006KT 10SM CLR M04/M09 A2985 RMK AO2 SLP119 T10441089 10089 21050 56005
KLAA 180453Z AUTO 24004KT 10SM CLR M04/M09 A2986 RMK AO2 SLP126 T10391094
KLAA 180353Z AUTO 21005KT 10SM CLR M04/M09 A2986 RMK AO2 SLP136 T10391094
KLAA 180253Z AUTO 21003KT 10SM CLR 00/M09 A2987 RMK AO2 SLP139 T00001089 53007
KLAA 180153Z AUTO 00000KT 10SM CLR 03/M09 A2986 RMK AO2 SLP135 T00331089
KLAA 180053Z AUTO 17003KT 10SM CLR 01/M09 A2985 RMK AO2 SLP130 T00111089
KLAA 172353Z AUTO 18006KT 10SM CLR 09/M08 A2984 RMK AO2 SLP115 T00891083 10144 20050 55004
KLAA 172253Z AUTO 12003KT 10SM CLR 14/M08 A2984 RMK AO2 SLP105 T01391078
KLAA 172153Z AUTO 00000KT 10SM CLR 13/M08 A2985 RMK AO2 SLP109 T01331078
KLAA 172053Z AUTO VRB05KT 10SM CLR 12/M07 A2986 RMK AO2 SLP113 T01221072 56034
KLAA 171953Z AUTO 27006KT 10SM CLR 10/M07 A2988 RMK AO2 PRESFR SLP125 T01001072
KLAA 171853Z AUTO 27008KT 10SM CLR 08/M07 A2992 RMK AO2 SLP143 T00781072
KLAA 171753Z AUTO 28007KT 10SM CLR 05/M07 A2997 RMK AO2 SLP162 T00501072 10050 21117 58009
KLAA 171653Z AUTO 28010KT 10SM CLR 01/M08 A2999 RMK AO2 SLP175 T00111078
KLAA 171553Z AUTO 27008KT 10SM CLR M04/M09 A3000 RMK AO2 SLP183 T10441089
KLAA 171453Z AUTO 21005KT 10SM CLR M08/M10 A3000 RMK AO2 SLP184 T10781100 58007
KLAA 171353Z AUTO 21004KT 10SM CLR M11/M13 A3001 RMK AO2 SLP187 T11061133
KLAA 171253Z AUTO 00000KT 10SM CLR M08/M10 A3002 RMK AO2 SLP183 T10831100
KLAA 171153Z AUTO 00000KT 10SM CLR M07/M09 A3002 RMK AO2 SLP175 T10671094 11050 21083 56021
KLAA 171053Z AUTO 21003KT 10SM CLR M07/M09 A3004 RMK AO2 SLP179 T10721094
KLAA 170953Z AUTO 20009KT 10SM CLR M06/M09 A3007 RMK AO2 SLP180 T10611089
KLAA 170853Z AUTO 20008KT 10SM CLR M06/M09 A3009 RMK AO2 SLP190 T10611089 58014
KLAA 170753Z AUTO 21007KT 10SM CLR M06/M09 A3012 RMK AO2 SLP200 T10611089
KLAA 170653Z AUTO 24004KT 10SM CLR M07/M10 A3013 RMK AO2 SLP209 T10721100 401611094
KLAA 170553Z AUTO 20009KT 10SM CLR M05/M09 A3014 RMK AO2 SLP214 T10501089 10094 21067 51007
KLAA 170453Z AUTO 21007KT 10SM CLR M06/M10 A3013 RMK AO2 SLP219 T10611100
KLAA 170353Z AUTO 21004KT 10SM CLR M02/M08 A3013 RMK AO2 SLP221 T10221078
KLAA 170253Z AUTO 00000KT 10SM CLR 01/M08 A3012 RMK AO2 SLP218 T00061078 51022
KLAA 170153Z AUTO 06005KT 10SM CLR 03/M07 A3011 RMK AO2 SLP219 T00331072
KLAA 170053Z AUTO 06006KT 10SM CLR 06/M08 A3008 RMK AO2 SLP199 T00611083
KLAA 162353Z AUTO 02005KT 10SM CLR 09/M09 A3004 RMK AO2 SLP184 T00941094 10161 20094 51010
KLAA 162253Z AUTO 02008KT 10SM CLR 11/M10 A3004 RMK AO2 SLP176 T01111100
KLAA 162153Z AUTO 01011KT 10SM CLR 16/M11 A3002 RMK AO2 SLP165 T01561106